sensor_id;sensor_type;location;lat;lon;timestamp;P1;durP1;ratioP1;P2;durP2;ratioP2
1258;SDS011;619;51.472;6.628;2023-07-20T00:01:34;6.60;;;5.33;;
1258;SDS011;619;51.472;6.628;2023-07-20T00:04:03;12.70;;;5.70;;
1258;SDS011;619;51.472;6.628;2023-07-20T00:06:28;7.83;;;5.57;;
1258;SDS011;619;51.472;6.628;2023-07-20T00:08:54;5.83;;;4.90;;
1258;SDS011;619;51.472;6.628;2023-07-20T00:11:21;6.17;;;4.90;;
1258;SDS011;619;51.472;6.628;2023-07-20T00:13:50;8.40;;;5.03;;
1258;SDS011;619;51.472;6.628;2023-07-20T00:16:18;5.20;;;4.70;;
1258;SDS011;619;51.472;6.628;2023-07-20T00:18:44;6.00;;;5.27;;
1258;SDS011;619;51.472;6.628;2023-07-20T00:21:09;5.50;;;5.00;;
1258;SDS011;619;51.472;6.628;2023-07-20T00:23:35;5.67;;;4.50;;
1258;SDS011;619;51.472;6.628;2023-07-20T00:26:03;8.93;;;5.37;;
1258;SDS011;619;51.472;6.628;2023-07-20T00:28:33;6.87;;;6.17;;
1258;SDS011;619;51.472;6.628;2023-07-20T00:30:59;7.40;;;5.43;;
1258;SDS011;619;51.472;6.628;2023-07-20T00:33:25;6.67;;;5.03;;
1258;SDS011;619;51.472;6.628;2023-07-20T00:35:53;7.33;;;4.67;;
1258;SDS011;619;51.472;6.628;2023-07-20T00:38:19;9.20;;;5.03;;
1258;SDS011;619;51.472;6.628;2023-07-20T00:40:45;8.00;;;4.47;;
1258;SDS011;619;51.472;6.628;2023-07-20T00:43:14;6.80;;;4.90;;
1258;SDS011;619;51.472;6.628;2023-07-20T00:45:40;7.40;;;4.97;;
1258;SDS011;619;51.472;6.628;2023-07-20T00:48:06;7.80;;;5.27;;
1258;SDS011;619;51.472;6.628;2023-07-20T00:50:33;7.83;;;5.23;;
1258;SDS011;619;51.472;6.628;2023-07-20T00:52:59;8.17;;;5.33;;
1258;SDS011;619;51.472;6.628;2023-07-20T00:55:28;7.77;;;5.60;;
1258;SDS011;619;51.472;6.628;2023-07-20T00:57:54;5.53;;;4.67;;
1258;SDS011;619;51.472;6.628;2023-07-20T01:00:20;9.13;;;4.93;;
1258;SDS011;619;51.472;6.628;2023-07-20T01:02:45;7.17;;;4.73;;
1258;SDS011;619;51.472;6.628;2023-07-20T01:05:12;5.97;;;5.40;;
1258;SDS011;619;51.472;6.628;2023-07-20T01:07:38;4.60;;;4.20;;
1258;SDS011;619;51.472;6.628;2023-07-20T01:10:25;6.33;;;4.60;;
1258;SDS011;619;51.472;6.628;2023-07-20T01:13:00;5.30;;;4.80;;
1258;SDS011;619;51.472;6.628;2023-07-20T01:15:31;7.53;;;5.17;;
1258;SDS011;619;51.472;6.628;2023-07-20T01:18:01;8.73;;;5.50;;
1258;SDS011;619;51.472;6.628;2023-07-20T01:20:29;6.60;;;5.57;;
1258;SDS011;619;51.472;6.628;2023-07-20T01:31:43;7.63;;;5.67;;
1258;SDS011;619;51.472;6.628;2023-07-20T01:34:12;6.40;;;5.70;;
1258;SDS011;619;51.472;6.628;2023-07-20T01:36:42;7.43;;;5.67;;
1258;SDS011;619;51.472;6.628;2023-07-20T01:39:11;5.90;;;5.30;;
1258;SDS011;619;51.472;6.628;2023-07-20T01:41:37;9.47;;;6.00;;
1258;SDS011;619;51.472;6.628;2023-07-20T01:44:03;7.93;;;6.00;;
1258;SDS011;619;51.472;6.628;2023-07-20T01:46:29;6.50;;;5.90;;
1258;SDS011;619;51.472;6.628;2023-07-20T01:48:57;8.90;;;5.90;;
1258;SDS011;619;51.472;6.628;2023-07-20T01:51:23;8.23;;;6.23;;
1258;SDS011;619;51.472;6.628;2023-07-20T01:53:49;10.73;;;5.90;;
1258;SDS011;619;51.472;6.628;2023-07-20T01:56:14;8.60;;;6.27;;
1258;SDS011;619;51.472;6.628;2023-07-20T01:58:42;10.97;;;6.80;;
1258;SDS011;619;51.472;6.628;2023-07-20T02:01:10;11.60;;;6.83;;
1258;SDS011;619;51.472;6.628;2023-07-20T02:03:36;7.73;;;6.50;;
1258;SDS011;619;51.472;6.628;2023-07-20T02:06:04;7.97;;;6.00;;
1258;SDS011;619;51.472;6.628;2023-07-20T02:08:29;7.50;;;6.80;;
1258;SDS011;619;51.472;6.628;2023-07-20T02:10:57;9.83;;;7.40;;
1258;SDS011;619;51.472;6.628;2023-07-20T02:13:23;8.10;;;7.30;;
1258;SDS011;619;51.472;6.628;2023-07-20T02:15:48;8.53;;;7.27;;
1258;SDS011;619;51.472;6.628;2023-07-20T02:18:14;9.77;;;7.00;;
1258;SDS011;619;51.472;6.628;2023-07-20T02:20:42;10.47;;;8.03;;
1258;SDS011;619;51.472;6.628;2023-07-20T02:23:10;13.70;;;8.63;;
1258;SDS011;619;51.472;6.628;2023-07-20T02:25:36;10.07;;;7.73;;
1258;SDS011;619;51.472;6.628;2023-07-20T02:28:03;11.53;;;7.90;;
1258;SDS011;619;51.472;6.628;2023-07-20T02:30:32;10.67;;;8.60;;
1258;SDS011;619;51.472;6.628;2023-07-20T02:33:00;9.57;;;7.77;;
1258;SDS011;619;51.472;6.628;2023-07-20T02:35:25;9.30;;;8.50;;
1258;SDS011;619;51.472;6.628;2023-07-20T02:37:54;13.07;;;8.83;;
1258;SDS011;619;51.472;6.628;2023-07-20T02:40:19;12.67;;;8.70;;
1258;SDS011;619;51.472;6.628;2023-07-20T02:42:47;10.87;;;9.07;;
1258;SDS011;619;51.472;6.628;2023-07-20T02:45:16;10.40;;;9.30;;
1258;SDS011;619;51.472;6.628;2023-07-20T02:47:42;10.63;;;8.43;;
1258;SDS011;619;51.472;6.628;2023-07-20T02:50:08;12.47;;;8.10;;
1258;SDS011;619;51.472;6.628;2023-07-20T02:52:34;11.07;;;9.10;;
1258;SDS011;619;51.472;6.628;2023-07-20T02:55:02;10.33;;;9.33;;
1258;SDS011;619;51.472;6.628;2023-07-20T02:57:30;9.47;;;7.73;;
1258;SDS011;619;51.472;6.628;2023-07-20T02:59:55;9.20;;;8.30;;
1258;SDS011;619;51.472;6.628;2023-07-20T03:02:21;9.90;;;8.90;;
1258;SDS011;619;51.472;6.628;2023-07-20T03:04:47;13.73;;;9.67;;
1258;SDS011;619;51.472;6.628;2023-07-20T03:07:14;10.80;;;9.50;;
1258;SDS011;619;51.472;6.628;2023-07-20T03:09:40;14.53;;;9.20;;
1258;SDS011;619;51.472;6.628;2023-07-20T03:12:06;10.53;;;8.97;;
1258;SDS011;619;51.472;6.628;2023-07-20T03:14:34;10.13;;;8.47;;
1258;SDS011;619;51.472;6.628;2023-07-20T03:17:00;12.57;;;8.60;;
1258;SDS011;619;51.472;6.628;2023-07-20T03:19:25;11.40;;;9.27;;
1258;SDS011;619;51.472;6.628;2023-07-20T03:21:53;12.47;;;8.87;;
1258;SDS011;619;51.472;6.628;2023-07-20T03:24:21;12.67;;;9.40;;
1258;SDS011;619;51.472;6.628;2023-07-20T03:26:50;13.10;;;9.87;;
1258;SDS011;619;51.472;6.628;2023-07-20T03:29:18;11.47;;;9.60;;
1258;SDS011;619;51.472;6.628;2023-07-20T03:31:46;13.43;;;8.67;;
1258;SDS011;619;51.472;6.628;2023-07-20T03:34:15;10.87;;;9.70;;
1258;SDS011;619;51.472;6.628;2023-07-20T03:36:41;12.70;;;9.43;;
1258;SDS011;619;51.472;6.628;2023-07-20T03:39:09;10.37;;;9.30;;
1258;SDS011;619;51.472;6.628;2023-07-20T03:41:34;10.77;;;9.13;;
1258;SDS011;619;51.472;6.628;2023-07-20T03:44:00;10.17;;;8.47;;
1258;SDS011;619;51.472;6.628;2023-07-20T03:46:25;10.30;;;9.00;;
1258;SDS011;619;51.472;6.628;2023-07-20T03:48:54;10.77;;;9.67;;
1258;SDS011;619;51.472;6.628;2023-07-20T03:51:19;10.63;;;9.53;;
1258;SDS011;619;51.472;6.628;2023-07-20T03:53:47;13.13;;;9.93;;
1258;SDS011;619;51.472;6.628;2023-07-20T03:56:15;11.63;;;10.43;;
1258;SDS011;619;51.472;6.628;2023-07-20T03:58:41;12.43;;;11.33;;
1258;SDS011;619;51.472;6.628;2023-07-20T04:01:08;13.10;;;11.47;;
1258;SDS011;619;51.472;6.628;2023-07-20T04:03:38;16.50;;;12.80;;
1258;SDS011;619;51.472;6.628;2023-07-20T04:06:05;14.73;;;13.20;;
1258;SDS011;619;51.472;6.628;2023-07-20T04:08:31;15.33;;;13.83;;
1258;SDS011;619;51.472;6.628;2023-07-20T04:11:01;14.47;;;12.93;;
1258;SDS011;619;51.472;6.628;2023-07-20T04:13:27;15.40;;;13.50;;
1258;SDS011;619;51.472;6.628;2023-07-20T04:15:59;15.63;;;14.13;;
1258;SDS011;619;51.472;6.628;2023-07-20T04:18:27;14.77;;;13.27;;
1258;SDS011;619;51.472;6.628;2023-07-20T04:20:52;15.07;;;13.63;;
1258;SDS011;619;51.472;6.628;2023-07-20T04:23:21;16.37;;;12.70;;
1258;SDS011;619;51.472;6.628;2023-07-20T04:25:46;15.37;;;13.87;;
1258;SDS011;619;51.472;6.628;2023-07-20T04:28:12;14.40;;;12.77;;
1258;SDS011;619;51.472;6.628;2023-07-20T04:30:38;15.20;;;13.70;;
1258;SDS011;619;51.472;6.628;2023-07-20T04:33:05;15.30;;;13.67;;
1258;SDS011;619;51.472;6.628;2023-07-20T04:38:18;13.47;;;12.17;;
1258;SDS011;619;51.472;6.628;2023-07-20T04:40:45;14.53;;;12.83;;
1258;SDS011;619;51.472;6.628;2023-07-20T04:43:14;14.13;;;12.43;;
1258;SDS011;619;51.472;6.628;2023-07-20T04:45:47;13.93;;;12.40;;
1258;SDS011;619;51.472;6.628;2023-07-20T04:48:18;13.47;;;12.17;;
1258;SDS011;619;51.472;6.628;2023-07-20T04:50:44;13.47;;;12.17;;
1258;SDS011;619;51.472;6.628;2023-07-20T04:53:11;11.60;;;10.47;;
1258;SDS011;619;51.472;6.628;2023-07-20T04:55:40;12.50;;;11.30;;
1258;SDS011;619;51.472;6.628;2023-07-20T04:58:12;12.73;;;11.53;;
1258;SDS011;619;51.472;6.628;2023-07-20T05:00:38;12.53;;;10.83;;
1258;SDS011;619;51.472;6.628;2023-07-20T05:03:03;12.30;;;11.20;;
1258;SDS011;619;51.472;6.628;2023-07-20T05:05:30;11.40;;;10.30;;
1258;SDS011;619;51.472;6.628;2023-07-20T05:07:58;10.60;;;9.50;;
1258;SDS011;619;51.472;6.628;2023-07-20T05:10:26;12.23;;;9.10;;
1258;SDS011;619;51.472;6.628;2023-07-20T05:12:51;10.40;;;9.40;;
1258;SDS011;619;51.472;6.628;2023-07-20T05:15:17;9.90;;;9.10;;
1258;SDS011;619;51.472;6.628;2023-07-20T05:17:43;11.47;;;10.27;;
1258;SDS011;619;51.472;6.628;2023-07-20T05:20:09;9.97;;;9.07;;
1258;SDS011;619;51.472;6.628;2023-07-20T05:22:35;11.20;;;10.10;;
1258;SDS011;619;51.472;6.628;2023-07-20T05:25:08;10.97;;;9.90;;
1258;SDS011;619;51.472;6.628;2023-07-20T05:27:37;11.03;;;9.90;;
1258;SDS011;619;51.472;6.628;2023-07-20T05:30:04;12.33;;;11.13;;
1258;SDS011;619;51.472;6.628;2023-07-20T05:32:30;10.17;;;9.27;;
1258;SDS011;619;51.472;6.628;2023-07-20T05:34:58;9.37;;;8.47;;
1258;SDS011;619;51.472;6.628;2023-07-20T05:37:26;9.23;;;8.43;;
1258;SDS011;619;51.472;6.628;2023-07-20T05:39:54;10.00;;;8.40;;
1258;SDS011;619;51.472;6.628;2023-07-20T05:42:22;9.33;;;7.83;;
1258;SDS011;619;51.472;6.628;2023-07-20T05:44:50;9.33;;;8.33;;
1258;SDS011;619;51.472;6.628;2023-07-20T05:47:17;8.90;;;8.00;;
1258;SDS011;619;51.472;6.628;2023-07-20T05:49:46;9.07;;;8.27;;
1258;SDS011;619;51.472;6.628;2023-07-20T05:52:12;8.93;;;8.13;;
1258;SDS011;619;51.472;6.628;2023-07-20T05:54:41;8.33;;;7.53;;
1258;SDS011;619;51.472;6.628;2023-07-20T05:57:07;8.83;;;8.03;;
1258;SDS011;619;51.472;6.628;2023-07-20T05:59:36;9.20;;;7.03;;
1258;SDS011;619;51.472;6.628;2023-07-20T06:02:05;6.77;;;6.13;;
1258;SDS011;619;51.472;6.628;2023-07-20T06:04:35;8.40;;;7.63;;
1258;SDS011;619;51.472;6.628;2023-07-20T06:07:03;7.70;;;5.80;;
1258;SDS011;619;51.472;6.628;2023-07-20T06:09:29;6.53;;;5.90;;
1258;SDS011;619;51.472;6.628;2023-07-20T06:11:55;6.80;;;6.10;;
1258;SDS011;619;51.472;6.628;2023-07-20T06:14:21;7.10;;;6.40;;
1258;SDS011;619;51.472;6.628;2023-07-20T06:16:49;8.60;;;7.60;;
1258;SDS011;619;51.472;6.628;2023-07-20T06:19:17;9.60;;;8.90;;
1258;SDS011;619;51.472;6.628;2023-07-20T06:21:43;11.40;;;9.63;;
1258;SDS011;619;51.472;6.628;2023-07-20T06:24:09;11.80;;;10.50;;
1258;SDS011;619;51.472;6.628;2023-07-20T06:26:37;13.70;;;10.20;;
1258;SDS011;619;51.472;6.628;2023-07-20T06:29:05;10.93;;;9.83;;
1258;SDS011;619;51.472;6.628;2023-07-20T06:31:36;10.70;;;9.60;;
1258;SDS011;619;51.472;6.628;2023-07-20T06:34:04;11.17;;;9.90;;
1258;SDS011;619;51.472;6.628;2023-07-20T06:36:32;9.83;;;7.30;;
1258;SDS011;619;51.472;6.628;2023-07-20T06:39:00;9.57;;;7.73;;
1258;SDS011;619;51.472;6.628;2023-07-20T06:41:27;8.30;;;7.60;;
1258;SDS011;619;51.472;6.628;2023-07-20T06:43:53;7.80;;;6.90;;
1258;SDS011;619;51.472;6.628;2023-07-20T06:46:23;8.67;;;7.77;;
1258;SDS011;619;51.472;6.628;2023-07-20T06:48:50;10.10;;;9.10;;
1258;SDS011;619;51.472;6.628;2023-07-20T06:51:16;7.40;;;6.33;;
1258;SDS011;619;51.472;6.628;2023-07-20T06:53:42;7.90;;;7.07;;
1258;SDS011;619;51.472;6.628;2023-07-20T06:56:08;6.73;;;5.83;;
1258;SDS011;619;51.472;6.628;2023-07-20T06:58:36;5.93;;;5.33;;
1258;SDS011;619;51.472;6.628;2023-07-20T07:01:08;5.87;;;5.27;;
1258;SDS011;619;51.472;6.628;2023-07-20T07:03:34;7.50;;;6.33;;
1258;SDS011;619;51.472;6.628;2023-07-20T07:06:02;6.47;;;5.87;;
1258;SDS011;619;51.472;6.628;2023-07-20T07:08:28;6.73;;;6.13;;
1258;SDS011;619;51.472;6.628;2023-07-20T07:10:54;6.07;;;5.57;;
1258;SDS011;619;51.472;6.628;2023-07-20T07:13:24;5.10;;;4.70;;
1258;SDS011;619;51.472;6.628;2023-07-20T07:15:50;4.03;;;3.67;;
1258;SDS011;619;51.472;6.628;2023-07-20T07:18:16;3.33;;;2.40;;
1258;SDS011;619;51.472;6.628;2023-07-20T07:20:49;3.40;;;3.10;;
1258;SDS011;619;51.472;6.628;2023-07-20T07:23:16;3.53;;;2.20;;
1258;SDS011;619;51.472;6.628;2023-07-20T07:25:43;3.50;;;3.20;;
1258;SDS011;619;51.472;6.628;2023-07-20T07:28:09;4.63;;;4.23;;
1258;SDS011;619;51.472;6.628;2023-07-20T07:30:40;5.63;;;4.90;;
1258;SDS011;619;51.472;6.628;2023-07-20T07:33:10;3.70;;;3.03;;
1258;SDS011;619;51.472;6.628;2023-07-20T07:35:36;4.10;;;3.63;;
1258;SDS011;619;51.472;6.628;2023-07-20T07:38:02;4.20;;;3.80;;
1258;SDS011;619;51.472;6.628;2023-07-20T07:40:31;6.00;;;5.40;;
1258;SDS011;619;51.472;6.628;2023-07-20T07:42:57;5.20;;;4.63;;
1258;SDS011;619;51.472;6.628;2023-07-20T07:45:22;4.77;;;4.33;;
1258;SDS011;619;51.472;6.628;2023-07-20T07:47:48;4.77;;;4.37;;
1258;SDS011;619;51.472;6.628;2023-07-20T07:50:14;6.83;;;5.20;;
1258;SDS011;619;51.472;6.628;2023-07-20T07:52:39;6.70;;;6.00;;
1258;SDS011;619;51.472;6.628;2023-07-20T07:55:05;7.93;;;7.13;;
1258;SDS011;619;51.472;6.628;2023-07-20T07:57:31;7.50;;;6.80;;
1258;SDS011;619;51.472;6.628;2023-07-20T07:59:56;6.03;;;5.43;;
1258;SDS011;619;51.472;6.628;2023-07-20T08:02:24;7.73;;;7.03;;
1258;SDS011;619;51.472;6.628;2023-07-20T08:04:53;6.37;;;5.70;;
1258;SDS011;619;51.472;6.628;2023-07-20T08:07:18;8.73;;;8.03;;
1258;SDS011;619;51.472;6.628;2023-07-20T08:09:44;8.17;;;7.10;;
1258;SDS011;619;51.472;6.628;2023-07-20T08:12:11;12.03;;;10.93;;
1258;SDS011;619;51.472;6.628;2023-07-20T08:14:38;4.70;;;4.30;;
1258;SDS011;619;51.472;6.628;2023-07-20T08:17:04;4.47;;;4.07;;
1258;SDS011;619;51.472;6.628;2023-07-20T08:19:29;2.63;;;2.43;;
1258;SDS011;619;51.472;6.628;2023-07-20T08:21:55;2.90;;;2.70;;
1258;SDS011;619;51.472;6.628;2023-07-20T08:24:20;3.47;;;3.27;;
1258;SDS011;619;51.472;6.628;2023-07-20T08:26:46;3.67;;;3.37;;
1258;SDS011;619;51.472;6.628;2023-07-20T08:29:14;3.93;;;3.60;;
1258;SDS011;619;51.472;6.628;2023-07-20T08:31:39;3.67;;;3.37;;
1258;SDS011;619;51.472;6.628;2023-07-20T08:34:08;2.70;;;2.50;;
1258;SDS011;619;51.472;6.628;2023-07-20T08:36:33;3.40;;;2.07;;
1258;SDS011;619;51.472;6.628;2023-07-20T08:38:59;2.30;;;2.10;;
1258;SDS011;619;51.472;6.628;2023-07-20T08:41:24;2.37;;;2.17;;
1258;SDS011;619;51.472;6.628;2023-07-20T08:43:52;3.47;;;1.70;;
1258;SDS011;619;51.472;6.628;2023-07-20T08:46:22;2.83;;;1.50;;
1258;SDS011;619;51.472;6.628;2023-07-20T08:48:52;2.20;;;1.60;;
1258;SDS011;619;51.472;6.628;2023-07-20T08:51:18;1.50;;;1.33;;
1258;SDS011;619;51.472;6.628;2023-07-20T08:53:48;2.00;;;1.63;;
1258;SDS011;619;51.472;6.628;2023-07-20T08:56:16;2.33;;;2.03;;
1258;SDS011;619;51.472;6.628;2023-07-20T08:58:46;2.40;;;1.90;;
1258;SDS011;619;51.472;6.628;2023-07-20T09:01:12;3.70;;;1.47;;
1258;SDS011;619;51.472;6.628;2023-07-20T09:03:39;1.90;;;1.43;;
1258;SDS011;619;51.472;6.628;2023-07-20T09:06:07;2.60;;;1.93;;
1258;SDS011;619;51.472;6.628;2023-07-20T09:08:39;3.80;;;1.20;;
1258;SDS011;619;51.472;6.628;2023-07-20T09:11:05;1.67;;;1.27;;
1258;SDS011;619;51.472;6.628;2023-07-20T09:13:34;1.67;;;1.57;;
1258;SDS011;619;51.472;6.628;2023-07-20T09:16:02;2.80;;;1.53;;
1258;SDS011;619;51.472;6.628;2023-07-20T09:18:31;2.67;;;1.63;;
1258;SDS011;619;51.472;6.628;2023-07-20T09:21:05;3.07;;;1.93;;
1258;SDS011;619;51.472;6.628;2023-07-20T09:23:36;4.67;;;1.50;;
1258;SDS011;619;51.472;6.628;2023-07-20T09:26:11;1.80;;;1.10;;
1258;SDS011;619;51.472;6.628;2023-07-20T09:28:42;1.27;;;0.93;;
1258;SDS011;619;51.472;6.628;2023-07-20T09:31:18;1.87;;;1.20;;
1258;SDS011;619;51.472;6.628;2023-07-20T09:33:45;1.90;;;1.50;;
1258;SDS011;619;51.472;6.628;2023-07-20T09:36:11;1.50;;;0.90;;
1258;SDS011;619;51.472;6.628;2023-07-20T09:38:40;2.83;;;1.37;;
1258;SDS011;619;51.472;6.628;2023-07-20T09:41:08;2.20;;;1.20;;
1258;SDS011;619;51.472;6.628;2023-07-20T09:43:37;1.53;;;1.13;;
1258;SDS011;619;51.472;6.628;2023-07-20T09:46:04;5.50;;;1.30;;
1258;SDS011;619;51.472;6.628;2023-07-20T09:48:30;2.60;;;1.50;;
1258;SDS011;619;51.472;6.628;2023-07-20T09:50:56;1.37;;;1.10;;
1258;SDS011;619;51.472;6.628;2023-07-20T09:53:22;2.10;;;1.10;;
1258;SDS011;619;51.472;6.628;2023-07-20T09:55:50;3.80;;;1.20;;
1258;SDS011;619;51.472;6.628;2023-07-20T09:58:17;1.77;;;1.63;;
1258;SDS011;619;51.472;6.628;2023-07-20T10:00:42;1.30;;;1.10;;
1258;SDS011;619;51.472;6.628;2023-07-20T10:03:12;1.37;;;0.83;;
1258;SDS011;619;51.472;6.628;2023-07-20T10:05:56;1.83;;;1.00;;
1258;SDS011;619;51.472;6.628;2023-07-20T10:08:32;1.70;;;0.80;;
1258;SDS011;619;51.472;6.628;2023-07-20T10:11:00;3.10;;;1.27;;
1258;SDS011;619;51.472;6.628;2023-07-20T10:13:27;2.43;;;1.03;;
1258;SDS011;619;51.472;6.628;2023-07-20T10:15:58;2.10;;;1.30;;
1258;SDS011;619;51.472;6.628;2023-07-20T10:18:34;2.00;;;0.90;;
1258;SDS011;619;51.472;6.628;2023-07-20T10:21:08;1.07;;;0.77;;
1258;SDS011;619;51.472;6.628;2023-07-20T10:23:35;1.30;;;1.07;;
1258;SDS011;619;51.472;6.628;2023-07-20T10:26:02;3.97;;;1.87;;
1258;SDS011;619;51.472;6.628;2023-07-20T10:28:28;1.57;;;1.30;;
1258;SDS011;619;51.472;6.628;2023-07-20T10:30:54;1.63;;;1.30;;
1258;SDS011;619;51.472;6.628;2023-07-20T10:33:20;2.13;;;1.00;;
1258;SDS011;619;51.472;6.628;2023-07-20T10:35:53;1.30;;;1.10;;
1258;SDS011;619;51.472;6.628;2023-07-20T10:38:37;1.70;;;1.60;;
1258;SDS011;619;51.472;6.628;2023-07-20T10:41:15;3.40;;;1.67;;
1258;SDS011;619;51.472;6.628;2023-07-20T10:44:03;3.30;;;1.07;;
1258;SDS011;619;51.472;6.628;2023-07-20T10:49:05;1.30;;;1.07;;
1258;SDS011;619;51.472;6.628;2023-07-20T10:54:33;2.17;;;1.67;;
1258;SDS011;619;51.472;6.628;2023-07-20T10:56:57;1.97;;;1.30;;
1258;SDS011;619;51.472;6.628;2023-07-20T10:59:43;1.30;;;1.10;;
1258;SDS011;619;51.472;6.628;2023-07-20T11:02:11;2.60;;;1.07;;
1258;SDS011;619;51.472;6.628;2023-07-20T11:04:41;1.37;;;1.00;;
1258;SDS011;619;51.472;6.628;2023-07-20T11:07:08;1.10;;;0.80;;
1258;SDS011;619;51.472;6.628;2023-07-20T11:09:37;1.30;;;0.90;;
1258;SDS011;619;51.472;6.628;2023-07-20T11:12:13;2.03;;;1.27;;
1258;SDS011;619;51.472;6.628;2023-07-20T11:14:44;2.00;;;1.20;;
1258;SDS011;619;51.472;6.628;2023-07-20T11:17:19;1.43;;;0.90;;
1258;SDS011;619;51.472;6.628;2023-07-20T11:19:56;2.70;;;0.93;;
1258;SDS011;619;51.472;6.628;2023-07-20T11:22:23;1.57;;;0.97;;
1258;SDS011;619;51.472;6.628;2023-07-20T11:24:48;1.37;;;1.00;;
1258;SDS011;619;51.472;6.628;2023-07-20T11:27:14;1.40;;;0.97;;
1258;SDS011;619;51.472;6.628;2023-07-20T11:29:40;1.87;;;1.00;;
1258;SDS011;619;51.472;6.628;2023-07-20T11:32:08;2.20;;;0.90;;
1258;SDS011;619;51.472;6.628;2023-07-20T11:34:36;2.80;;;1.30;;
1258;SDS011;619;51.472;6.628;2023-07-20T11:37:02;1.13;;;0.83;;
1258;SDS011;619;51.472;6.628;2023-07-20T11:39:28;1.80;;;0.87;;
1258;SDS011;619;51.472;6.628;2023-07-20T11:41:57;2.33;;;1.00;;
1258;SDS011;619;51.472;6.628;2023-07-20T11:44:23;2.00;;;1.27;;
1258;SDS011;619;51.472;6.628;2023-07-20T11:47:09;2.33;;;1.03;;
1258;SDS011;619;51.472;6.628;2023-07-20T11:49:41;1.30;;;0.90;;
1258;SDS011;619;51.472;6.628;2023-07-20T11:52:09;1.50;;;1.00;;
1258;SDS011;619;51.472;6.628;2023-07-20T11:54:37;1.37;;;1.00;;
1258;SDS011;619;51.472;6.628;2023-07-20T11:57:04;1.80;;;0.97;;
1258;SDS011;619;51.472;6.628;2023-07-20T11:59:33;1.70;;;0.90;;
1258;SDS011;619;51.472;6.628;2023-07-20T12:02:01;1.50;;;1.40;;
1258;SDS011;619;51.472;6.628;2023-07-20T12:04:33;1.60;;;0.90;;
1258;SDS011;619;51.472;6.628;2023-07-20T12:06:59;2.00;;;0.83;;
1258;SDS011;619;51.472;6.628;2023-07-20T12:09:27;1.10;;;0.83;;
1258;SDS011;619;51.472;6.628;2023-07-20T12:11:53;1.10;;;1.00;;
1258;SDS011;619;51.472;6.628;2023-07-20T12:14:19;1.40;;;1.00;;
1258;SDS011;619;51.472;6.628;2023-07-20T12:16:44;1.73;;;1.30;;
1258;SDS011;619;51.472;6.628;2023-07-20T12:19:24;2.13;;;1.10;;
1258;SDS011;619;51.472;6.628;2023-07-20T12:21:50;1.10;;;0.80;;
1258;SDS011;619;51.472;6.628;2023-07-20T12:24:24;1.50;;;0.90;;
1258;SDS011;619;51.472;6.628;2023-07-20T12:26:55;3.27;;;1.13;;
1258;SDS011;619;51.472;6.628;2023-07-20T12:29:22;1.93;;;1.27;;
1258;SDS011;619;51.472;6.628;2023-07-20T12:31:48;1.80;;;1.17;;
1258;SDS011;619;51.472;6.628;2023-07-20T12:34:14;1.50;;;0.97;;
1258;SDS011;619;51.472;6.628;2023-07-20T12:36:40;1.57;;;1.00;;
1258;SDS011;619;51.472;6.628;2023-07-20T12:39:10;1.27;;;0.90;;
1258;SDS011;619;51.472;6.628;2023-07-20T12:41:35;2.17;;;0.97;;
1258;SDS011;619;51.472;6.628;2023-07-20T12:44:03;1.60;;;1.20;;
1258;SDS011;619;51.472;6.628;2023-07-20T12:46:32;1.10;;;0.80;;
1258;SDS011;619;51.472;6.628;2023-07-20T12:49:04;1.67;;;0.93;;
1258;SDS011;619;51.472;6.628;2023-07-20T12:51:31;1.77;;;0.90;;
1258;SDS011;619;51.472;6.628;2023-07-20T12:54:00;1.40;;;1.10;;
1258;SDS011;619;51.472;6.628;2023-07-20T12:56:25;1.20;;;0.97;;
1258;SDS011;619;51.472;6.628;2023-07-20T12:58:53;1.67;;;0.90;;
1258;SDS011;619;51.472;6.628;2023-07-20T13:01:18;1.00;;;0.83;;
1258;SDS011;619;51.472;6.628;2023-07-20T13:03:44;1.70;;;1.00;;
1258;SDS011;619;51.472;6.628;2023-07-20T13:06:10;1.50;;;1.10;;
1258;SDS011;619;51.472;6.628;2023-07-20T13:08:38;1.77;;;1.10;;
1258;SDS011;619;51.472;6.628;2023-07-20T13:11:03;1.60;;;0.97;;
1258;SDS011;619;51.472;6.628;2023-07-20T13:13:30;2.30;;;1.50;;
1258;SDS011;619;51.472;6.628;2023-07-20T13:15:55;1.70;;;1.10;;
1258;SDS011;619;51.472;6.628;2023-07-20T13:18:25;1.10;;;0.80;;
1258;SDS011;619;51.472;6.628;2023-07-20T13:20:56;2.50;;;0.90;;
1258;SDS011;619;51.472;6.628;2023-07-20T13:23:22;1.10;;;0.90;;
1258;SDS011;619;51.472;6.628;2023-07-20T13:25:47;1.37;;;1.00;;
1258;SDS011;619;51.472;6.628;2023-07-20T13:28:13;3.70;;;2.57;;
1258;SDS011;619;51.472;6.628;2023-07-20T13:30:39;4.50;;;1.20;;
1258;SDS011;619;51.472;6.628;2023-07-20T13:33:11;4.03;;;0.90;;
1258;SDS011;619;51.472;6.628;2023-07-20T13:35:36;1.77;;;1.00;;
1258;SDS011;619;51.472;6.628;2023-07-20T13:38:04;1.13;;;0.77;;
1258;SDS011;619;51.472;6.628;2023-07-20T13:40:30;1.80;;;1.13;;
1258;SDS011;619;51.472;6.628;2023-07-20T13:42:56;1.60;;;0.90;;
1258;SDS011;619;51.472;6.628;2023-07-20T13:45:24;3.03;;;1.00;;
1258;SDS011;619;51.472;6.628;2023-07-20T13:47:52;3.50;;;1.07;;
1258;SDS011;619;51.472;6.628;2023-07-20T13:50:20;1.40;;;0.93;;
1258;SDS011;619;51.472;6.628;2023-07-20T13:52:49;1.20;;;1.00;;
1258;SDS011;619;51.472;6.628;2023-07-20T13:55:14;1.73;;;0.80;;
1258;SDS011;619;51.472;6.628;2023-07-20T13:57:40;1.43;;;0.93;;
1258;SDS011;619;51.472;6.628;2023-07-20T14:00:05;2.23;;;1.20;;
1258;SDS011;619;51.472;6.628;2023-07-20T14:02:36;2.00;;;1.10;;
1258;SDS011;619;51.472;6.628;2023-07-20T14:05:02;3.13;;;1.60;;
1258;SDS011;619;51.472;6.628;2023-07-20T14:07:30;2.30;;;1.33;;
1258;SDS011;619;51.472;6.628;2023-07-20T14:09:56;2.27;;;1.20;;
1258;SDS011;619;51.472;6.628;2023-07-20T14:12:22;3.10;;;1.83;;
1258;SDS011;619;51.472;6.628;2023-07-20T14:14:50;2.23;;;1.50;;
1258;SDS011;619;51.472;6.628;2023-07-20T14:17:18;2.13;;;1.30;;
1258;SDS011;619;51.472;6.628;2023-07-20T14:19:46;1.80;;;1.10;;
1258;SDS011;619;51.472;6.628;2023-07-20T14:22:16;3.73;;;1.40;;
1258;SDS011;619;51.472;6.628;2023-07-20T14:24:43;3.63;;;1.20;;
1258;SDS011;619;51.472;6.628;2023-07-20T14:27:11;1.93;;;1.30;;
1258;SDS011;619;51.472;6.628;2023-07-20T14:29:37;2.17;;;1.43;;
1258;SDS011;619;51.472;6.628;2023-07-20T14:32:03;1.33;;;1.13;;
1258;SDS011;619;51.472;6.628;2023-07-20T14:34:33;1.50;;;1.20;;
1258;SDS011;619;51.472;6.628;2023-07-20T14:37:01;1.70;;;1.20;;
1258;SDS011;619;51.472;6.628;2023-07-20T14:39:27;1.60;;;1.20;;
1258;SDS011;619;51.472;6.628;2023-07-20T14:41:53;1.77;;;1.20;;
1258;SDS011;619;51.472;6.628;2023-07-20T14:44:21;2.50;;;1.30;;
1258;SDS011;619;51.472;6.628;2023-07-20T14:46:46;2.73;;;1.60;;
1258;SDS011;619;51.472;6.628;2023-07-20T14:49:12;2.90;;;1.40;;
1258;SDS011;619;51.472;6.628;2023-07-20T14:51:38;1.30;;;1.10;;
1258;SDS011;619;51.472;6.628;2023-07-20T14:54:08;1.67;;;1.13;;
1258;SDS011;619;51.472;6.628;2023-07-20T14:56:35;3.30;;;1.43;;
1258;SDS011;619;51.472;6.628;2023-07-20T14:59:02;4.13;;;1.53;;
1258;SDS011;619;51.472;6.628;2023-07-20T15:01:29;1.93;;;1.13;;
1258;SDS011;619;51.472;6.628;2023-07-20T15:03:55;2.07;;;1.10;;
1258;SDS011;619;51.472;6.628;2023-07-20T15:06:21;1.80;;;1.33;;
1258;SDS011;619;51.472;6.628;2023-07-20T15:08:47;1.67;;;1.10;;
1258;SDS011;619;51.472;6.628;2023-07-20T15:11:13;2.80;;;1.33;;
1258;SDS011;619;51.472;6.628;2023-07-20T15:13:39;1.50;;;1.30;;
1258;SDS011;619;51.472;6.628;2023-07-20T15:16:09;1.30;;;1.20;;
1258;SDS011;619;51.472;6.628;2023-07-20T15:18:36;3.70;;;1.30;;
1258;SDS011;619;51.472;6.628;2023-07-20T15:21:02;2.00;;;1.60;;
1258;SDS011;619;51.472;6.628;2023-07-20T15:23:27;3.50;;;1.47;;
1258;SDS011;619;51.472;6.628;2023-07-20T15:25:53;1.87;;;1.60;;
1258;SDS011;619;51.472;6.628;2023-07-20T15:28:19;1.40;;;1.13;;
1258;SDS011;619;51.472;6.628;2023-07-20T15:30:45;7.23;;;1.80;;
1258;SDS011;619;51.472;6.628;2023-07-20T15:33:10;1.60;;;1.33;;
1258;SDS011;619;51.472;6.628;2023-07-20T15:35:36;5.40;;;4.60;;
1258;SDS011;619;51.472;6.628;2023-07-20T15:38:02;1.50;;;1.40;;
1258;SDS011;619;51.472;6.628;2023-07-20T15:40:28;3.80;;;1.20;;
1258;SDS011;619;51.472;6.628;2023-07-20T15:42:54;3.50;;;1.33;;
1258;SDS011;619;51.472;6.628;2023-07-20T15:45:20;2.03;;;1.50;;